Terminal Aerodrome Forecast
Issued by NWS

Home | Current Version | Previous Version | Text Only | Print | Product List | Glossary On
Versions: 1 2 3 4 5 6 7 8 9 10 11 12 13
000
FTUS45 KREV 092300
TAFMMH
TAF
KMMH 092321Z 1000/1024 28014G21KT P6SM SCT100
     FM100400 29006KT P6SM SKC
     FM101600 12007KT P6SM SCT100
     FM102000 23010KT P6SM VCTS SCT060CB BKN100
      AMD NOT SKED 1002/1014=

USA.gov is the U.S. government's official web portal to all federal, state and local government web resources and services.